Time;durP1;ratioP1;P1;durP2;ratioP2;P2;SDS_P1;SDS_P2;PMS_P1;PMS_P2;Temp;Humidity;BMP_temperature;BMP_pressure;BME280_temperature;BME280_humidity;BME280_pressure;Samples;Min_cycle;Max_cycle;Signal;HPM_P1;HPM_P2
2022/07/27 06:49:42;;;;;;;8.02;1.70;;;17.60;98.40;;;;;;5053838;28;20466;-54
2022/07/27 06:52:09;;;;;;;11.68;1.80;;;17.60;98.10;;;;;;5052650;28;20049;-53
2022/07/27 06:54:35;;;;;;;9.73;1.50;;;17.70;97.80;;;;;;5042714;28;20033;-50
2022/07/27 06:57:02;;;;;;;7.22;1.60;;;17.80;97.90;;;;;;5048661;28;20049;-52
2022/07/27 06:59:30;;;;;;;9.23;1.50;;;17.90;97.60;;;;;;5049991;28;20061;-55
2022/07/27 07:02:09;;;;;;;4.82;1.10;;;18.10;97.20;;;;;;5050272;28;20053;-53
2022/07/27 07:04:36;;;;;;;6.20;1.33;;;18.20;97.20;;;;;;5043476;28;21137;-51
2022/07/27 07:07:02;;;;;;;5.10;1.20;;;18.30;96.80;;;;;;5049638;28;20095;-54
2022/07/27 07:09:33;;;;;;;13.10;2.03;;;18.40;96.60;;;;;;5049736;28;20044;-53
2022/07/27 07:11:59;;;;;;;8.45;1.70;;;18.50;96.60;;;;;;5046982;28;20037;-55
2022/07/27 07:14:26;;;;;;;4.70;1.50;;;18.60;96.40;;;;;;5049458;28;20033;-51
2022/07/27 07:16:53;;;;;;;7.63;1.50;;;18.70;96.10;;;;;;5048829;28;20049;-53
2022/07/27 07:19:19;;;;;;;8.30;1.73;;;18.70;96.00;;;;;;5049675;28;20037;-53
2022/07/27 07:21:46;;;;;;;8.30;1.70;;;18.80;96.00;;;;;;5048333;28;20041;-52
2022/07/27 07:24:13;;;;;;;7.85;1.65;;;18.80;95.90;;;;;;5049483;28;20048;-55
2022/07/27 07:26:40;;;;;;;4.05;1.20;;;18.80;96.20;;;;;;5049147;28;20484;-51
2022/07/27 07:29:06;;;;;;;5.60;1.35;;;18.80;95.70;;;;;;5047268;28;20041;-51
2022/07/27 07:31:33;;;;;;;7.50;1.80;;;18.90;95.70;;;;;;5049455;28;20477;-56
2022/07/27 07:34:00;;;;;;;10.80;1.58;;;18.90;95.60;;;;;;5049341;28;20091;-58
2022/07/27 07:36:27;;;;;;;4.53;1.30;;;18.90;95.60;;;;;;5049171;28;20061;-53
2022/07/27 07:38:54;;;;;;;8.25;1.52;;;18.90;95.40;;;;;;5049320;28;20045;-52
2022/07/27 07:41:21;;;;;;;4.45;1.50;;;18.90;95.50;;;;;;5049301;28;20080;-56
2022/07/27 07:43:47;;;;;;;8.68;1.65;;;19.00;95.50;;;;;;5049497;28;20049;-52
2022/07/27 07:46:14;;;;;;;7.22;1.70;;;19.00;95.50;;;;;;5048972;28;20080;-52
2022/07/27 07:48:42;;;;;;;5.85;1.45;;;19.10;95.50;;;;;;5048924;28;20115;-53
2022/07/27 07:51:09;;;;;;;8.05;1.85;;;19.10;95.20;;;;;;5049302;28;20077;-48
2022/07/27 07:53:36;;;;;;;11.93;1.95;;;19.20;95.20;;;;;;5047130;28;20033;-50
2022/07/27 07:56:07;;;;;;;7.43;1.80;;;19.30;95.30;;;;;;5048729;28;20128;-53
2022/07/27 07:58:34;;;;;;;6.55;1.70;;;19.40;95.10;;;;;;5048936;28;20068;-52
2022/07/27 08:01:00;;;;;;;6.47;1.52;;;19.40;94.80;;;;;;5034907;28;20037;-55
2022/07/27 08:03:27;;;;;;;7.32;1.45;;;19.40;94.80;;;;;;5034211;28;20042;-53
2022/07/27 08:05:54;;;;;;;6.88;1.95;;;19.40;94.80;;;;;;5035316;28;20045;-56
2022/07/27 08:08:21;;;;;;;7.95;2.05;;;19.50;94.90;;;;;;5034945;28;20052;-56
2022/07/27 08:10:50;;;;;;;5.43;1.63;;;19.50;94.70;;;;;;5034971;28;20038;-54
2022/07/27 08:13:17;;;;;;;5.88;1.92;;;19.50;94.40;;;;;;5035069;28;20084;-53
2022/07/27 08:15:48;;;;;;;7.30;1.60;;;19.60;94.40;;;;;;5035210;28;20042;-55
2022/07/27 08:18:14;;;;;;;6.13;1.70;;;19.60;94.20;;;;;;5035363;28;20408;-55
2022/07/27 08:20:41;;;;;;;6.38;1.80;;;19.70;94.30;;;;;;5038624;28;20067;-57
2022/07/27 08:23:08;;;;;;;4.88;1.52;;;19.80;94.50;;;;;;5034367;28;20050;-54
2022/07/27 08:25:35;;;;;;;4.68;1.42;;;19.90;94.20;;;;;;5035424;28;20049;-51
2022/07/27 08:28:04;;;;;;;10.48;1.88;;;19.90;93.60;;;;;;5033723;28;20128;-52
2022/07/27 08:30:33;;;;;;;7.05;1.67;;;20.00;93.00;;;;;;5035004;28;20038;-49
2022/07/27 08:32:59;;;;;;;4.32;1.42;;;20.10;93.50;;;;;;5032406;28;20065;-54
2022/07/27 08:35:26;;;;;;;6.25;1.35;;;20.20;92.70;;;;;;5034482;28;20498;-55
2022/07/27 08:37:53;;;;;;;4.97;1.10;;;20.20;93.00;;;;;;5033474;28;20132;-53
2022/07/27 08:40:20;;;;;;;3.58;1.20;;;20.20;92.30;;;;;;5034865;28;20048;-54
2022/07/27 08:43:07;;;;;;;4.97;0.93;;;20.30;91.50;;;;;;5034201;28;20053;-50
2022/07/27 08:45:34;;;;;;;3.45;1.10;;;20.30;91.40;;;;;;5033919;28;20061;-50
2022/07/27 08:48:01;;;;;;;3.90;1.00;;;20.30;91.20;;;;;;5028228;28;20492;-45
2022/07/27 08:50:33;;;;;;;6.60;1.48;;;20.30;91.70;;;;;;5037634;28;20095;-53
2022/07/27 08:53:02;;;;;;;6.43;1.10;;;20.30;90.50;;;;;;5033443;28;20038;-57
2022/07/27 08:55:29;;;;;;;4.65;1.30;;;20.30;90.90;;;;;;5033806;28;20042;-49
2022/07/27 08:57:55;;;;;;;4.60;1.00;;;20.30;91.50;;;;;;5033688;28;20096;-52
2022/07/27 09:00:28;;;;;;;4.80;1.33;;;20.40;91.60;;;;;;5033188;28;20103;-56
2022/07/27 09:02:58;;;;;;;3.75;1.20;;;20.50;90.90;;;;;;5033139;28;20041;-55
2022/07/27 09:05:25;;;;;;;5.47;1.10;;;20.60;90.40;;;;;;5034101;28;20041;-51
2022/07/27 09:07:59;;;;;;;3.97;1.03;;;20.80;90.70;;;;;;5034252;28;20052;-54
2022/07/27 09:10:26;;;;;;;5.90;1.10;;;20.90;88.00;;;;;;5033774;28;20042;-49
2022/07/27 09:12:53;;;;;;;2.80;1.02;;;21.10;88.10;;;;;;5033382;28;20044;-53
2022/07/27 09:15:20;;;;;;;2.95;0.98;;;21.20;87.70;;;;;;5033940;28;20076;-53
2022/07/27 09:17:47;;;;;;;5.40;1.25;;;21.30;87.40;;;;;;5032726;28;20052;-51
2022/07/27 09:20:15;;;;;;;5.40;1.08;;;21.40;85.60;;;;;;5032684;28;20091;-55
2022/07/27 09:22:44;;;;;;;4.47;1.40;;;21.50;86.30;;;;;;5034023;28;20038;-54
2022/07/27 09:25:11;;;;;;;4.45;1.27;;;21.50;86.90;;;;;;5033809;28;20037;-52
2022/07/27 09:27:38;;;;;;;4.43;1.17;;;21.60;86.90;;;;;;5033853;28;20045;-57
2022/07/27 09:30:05;;;;;;;3.20;1.10;;;21.80;86.80;;;;;;5033816;28;20077;-56
2022/07/27 09:32:31;;;;;;;4.93;1.10;;;21.80;85.10;;;;;;5032695;28;20115;-53
2022/07/27 09:34:58;;;;;;;4.57;1.20;;;21.80;84.80;;;;;;5033074;28;20443;-59
2022/07/27 09:37:25;;;;;;;5.18;1.40;;;21.90;84.50;;;;;;5034637;28;20442;-52
2022/07/27 09:39:52;;;;;;;5.85;1.20;;;21.90;85.00;;;;;;5034112;28;20038;-53
2022/07/27 09:42:21;;;;;;;4.88;1.33;;;21.90;84.60;;;;;;5033907;28;20091;-54
2022/07/27 09:45:08;;;;;;;5.10;1.10;;;21.90;85.00;;;;;;5033493;28;20045;-58
2022/07/27 09:47:35;;;;;;;5.80;1.20;;;22.00;84.70;;;;;;5033509;28;20115;-52
2022/07/27 09:50:03;;;;;;;3.28;1.10;;;22.00;84.20;;;;;;5034733;28;20053;-56
2022/07/27 09:52:30;;;;;;;10.43;1.20;;;22.10;84.20;;;;;;5027196;28;20050;-58
2022/07/27 09:54:57;;;;;;;3.35;1.10;;;22.00;84.10;;;;;;5033257;28;20057;-57
2022/07/27 09:57:23;;;;;;;7.15;1.30;;;22.10;84.00;;;;;;5033408;28;20057;-55
2022/07/27 09:59:50;;;;;;;9.60;1.20;;;22.20;84.30;;;;;;5033567;28;20064;-52
2022/07/27 10:02:17;;;;;;;6.00;1.60;;;22.20;82.90;;;;;;5033463;28;20442;-52
2022/07/27 10:04:44;;;;;;;4.35;1.02;;;22.30;82.90;;;;;;5033257;28;20033;-54
2022/07/27 10:07:10;;;;;;;6.38;1.42;;;22.40;82.80;;;;;;5033210;28;20045;-53
2022/07/27 10:09:39;;;;;;;4.65;1.40;;;22.40;81.10;;;;;;5033035;28;20045;-58
2022/07/27 10:12:06;;;;;;;3.55;1.38;;;22.50;81.50;;;;;;5031024;28;20045;-54
2022/07/27 10:14:34;;;;;;;5.90;1.33;;;22.60;81.40;;;;;;5032640;28;20048;-56
2022/07/27 10:17:00;;;;;;;6.15;1.35;;;22.70;82.20;;;;;;5031618;28;20466;-63
2022/07/27 10:19:27;;;;;;;3.67;1.35;;;22.60;81.10;;;;;;5032868;28;20049;-51
2022/07/27 10:21:54;;;;;;;5.72;1.42;;;22.50;82.50;;;;;;5036471;28;20361;-54
2022/07/27 10:24:21;;;;;;;5.63;1.50;;;22.70;82.80;;;;;;5027448;28;20045;-53
2022/07/27 10:26:47;;;;;;;4.93;1.15;;;22.90;81.50;;;;;;5032420;28;20484;-56
2022/07/27 10:29:14;;;;;;;6.75;1.50;;;23.00;79.40;;;;;;5032886;28;20056;-63
2022/07/27 10:31:41;;;;;;;4.43;1.20;;;23.10;80.90;;;;;;5032942;28;20045;-47
2022/07/27 10:34:08;;;;;;;7.60;1.58;;;23.20;80.10;;;;;;5031522;28;20055;-56
2022/07/27 10:36:35;;;;;;;7.55;1.30;;;23.30;79.70;;;;;;5032643;28;20041;-59
2022/07/27 10:39:02;;;;;;;6.45;1.50;;;23.30;78.70;;;;;;5032545;28;20048;-58
2022/07/27 10:41:29;;;;;;;6.30;1.23;;;23.50;79.00;;;;;;5032841;28;20087;-57
2022/07/27 10:43:56;;;;;;;4.68;1.20;;;23.60;77.00;;;;;;5032826;28;20044;-58
2022/07/27 10:46:22;;;;;;;5.72;1.48;;;23.70;76.80;;;;;;5031928;28;20041;-58
2022/07/27 10:48:49;;;;;;;4.03;1.20;;;23.90;76.20;;;;;;5032314;28;20054;-58
2022/07/27 10:51:16;;;;;;;4.32;1.30;;;24.00;76.40;;;;;;5037184;28;20049;-56
2022/07/27 10:53:43;;;;;;;4.32;1.33;;;24.10;76.10;;;;;;5032660;28;20037;-57
2022/07/27 10:56:30;;;;;;;3.50;1.10;;;24.10;75.90;;;;;;5032576;28;20046;-51
2022/07/27 10:58:57;;;;;;;5.70;1.77;;;24.10;75.60;;;;;;5032443;28;20045;-59
2022/07/27 11:01:24;;;;;;;5.80;1.40;;;24.10;75.10;;;;;;5032543;28;20100;-57
2022/07/27 11:03:52;;;;;;;5.07;1.50;;;24.10;74.70;;;;;;5032617;28;20111;-53
2022/07/27 11:06:19;;;;;;;4.60;1.23;;;24.10;74.60;;;;;;5032515;28;20038;-59
2022/07/27 11:09:06;;;;;;;5.22;1.20;;;24.10;74.50;;;;;;5032510;28;20133;-54
2022/07/27 11:11:53;;;;;;;5.13;1.40;;;24.20;74.60;;;;;;5032443;28;20038;-55
2022/07/27 11:14:22;;;;;;;4.10;1.10;;;24.30;74.00;;;;;;5032562;28;20558;-55
2022/07/27 11:16:56;;;;;;;5.63;1.20;;;24.40;73.60;;;;;;5032614;28;20503;-58
2022/07/27 11:19:43;;;;;;;4.15;1.20;;;24.40;73.60;;;;;;5032344;28;20392;-60
2022/07/27 11:22:10;;;;;;;4.88;1.50;;;24.50;74.20;;;;;;5032850;28;20150;-53
2022/07/27 11:24:54;;;;;;;4.43;1.30;;;24.60;72.60;;;;;;5032395;28;20048;-59
2022/07/27 11:27:21;;;;;;;5.55;1.40;;;24.60;72.30;;;;;;5032387;28;20298;-62
2022/07/27 11:29:51;;;;;;;5.18;1.40;;;24.60;73.30;;;;;;5032219;28;20042;-54
2022/07/27 11:32:18;;;;;;;4.32;1.20;;;24.70;72.70;;;;;;5032351;28;20543;-59
2022/07/27 11:34:45;;;;;;;5.15;1.40;;;24.70;73.30;;;;;;5033504;28;20064;-52
2022/07/27 11:37:12;;;;;;;2.53;1.20;;;24.70;72.50;;;;;;5036022;28;20045;-58
2022/07/27 11:39:39;;;;;;;6.50;1.60;;;24.80;73.30;;;;;;5035965;28;20047;-59
2022/07/27 11:42:26;;;;;;;6.30;1.38;;;24.80;72.40;;;;;;5035941;28;20456;-63
2022/07/27 11:44:52;;;;;;;5.80;1.50;;;24.90;73.40;;;;;;5035858;28;20069;-51
2022/07/27 11:47:19;;;;;;;4.57;1.20;;;24.90;73.60;;;;;;5034429;28;20445;-54
2022/07/27 11:49:46;;;;;;;3.95;1.35;;;25.00;73.10;;;;;;5035629;28;20049;-55
2022/07/27 11:52:13;;;;;;;8.93;1.60;;;25.10;73.40;;;;;;5036995;28;20048;-56
2022/07/27 11:54:40;;;;;;;5.13;1.48;;;25.00;71.90;;;;;;5035689;28;20442;-53
2022/07/27 11:57:07;;;;;;;3.78;1.63;;;24.70;72.60;;;;;;5035818;28;20049;-56
2022/07/27 11:59:33;;;;;;;5.40;1.50;;;24.40;73.40;;;;;;5035697;28;20077;-57
2022/07/27 12:02:00;;;;;;;5.82;1.52;;;24.10;74.00;;;;;;5035545;28;20400;-61
2022/07/27 12:04:29;;;;;;;4.10;1.17;;;23.90;75.00;;;;;;5035560;28;20124;-59
2022/07/27 12:06:56;;;;;;;6.15;1.58;;;23.70;75.90;;;;;;5035448;28;20113;-55
2022/07/27 12:09:23;;;;;;;7.88;1.63;;;23.50;76.60;;;;;;5035683;28;20542;-63
2022/07/27 12:11:52;;;;;;;8.35;1.60;;;23.40;76.80;;;;;;5035446;28;20041;-58
2022/07/27 12:14:19;;;;;;;4.05;1.30;;;23.20;77.30;;;;;;5035502;28;20500;-51
2022/07/27 12:16:45;;;;;;;5.38;1.40;;;23.10;77.80;;;;;;5035383;28;20098;-60
2022/07/27 12:19:12;;;;;;;5.90;1.50;;;22.90;78.30;;;;;;5035481;28;20044;-58
2022/07/27 12:21:40;;;;;;;9.32;1.65;;;22.80;78.30;;;;;;5040141;28;20120;-58
2022/07/27 12:24:14;;;;;;;6.53;1.63;;;22.70;78.70;;;;;;5035467;28;20033;-49
2022/07/27 12:26:40;;;;;;;4.80;1.90;;;22.50;79.40;;;;;;5035163;28;20064;-57
2022/07/27 12:29:07;;;;;;;5.53;2.08;;;22.50;79.80;;;;;;5034211;28;20045;-54
2022/07/27 12:31:34;;;;;;;6.43;1.92;;;22.50;80.10;;;;;;5035039;28;20511;-53
2022/07/27 12:34:01;;;;;;;7.10;1.42;;;22.40;80.10;;;;;;5034987;28;20558;-52
2022/07/27 12:36:33;;;;;;;6.13;1.70;;;22.40;80.30;;;;;;5035038;28;20061;-50
2022/07/27 12:38:59;;;;;;;4.95;1.58;;;22.40;80.40;;;;;;5034957;28;20049;-56
2022/07/27 12:41:26;;;;;;;5.03;1.45;;;22.30;80.50;;;;;;5033601;28;20511;-54
2022/07/27 12:43:53;;;;;;;6.40;1.73;;;22.20;80.70;;;;;;5034791;28;20042;-51
2022/07/27 12:46:20;;;;;;;4.30;1.40;;;22.10;81.40;;;;;;5034680;28;20041;-50
2022/07/27 12:48:47;;;;;;;4.05;1.70;;;21.90;81.30;;;;;;5034537;28;20123;-52
2022/07/27 12:51:14;;;;;;;7.30;1.75;;;21.90;82.00;;;;;;5039518;28;20041;-52
2022/07/27 12:53:40;;;;;;;5.88;1.60;;;21.70;81.90;;;;;;5033349;28;20050;-52
2022/07/27 12:56:07;;;;;;;4.70;1.35;;;21.70;82.50;;;;;;5034283;28;20046;-48
2022/07/27 12:58:34;;;;;;;4.43;1.60;;;21.60;82.50;;;;;;5034611;28;20049;-57
2022/07/27 13:01:01;;;;;;;4.70;1.80;;;21.60;82.70;;;;;;5034087;28;20088;-55
2022/07/27 13:03:28;;;;;;;6.18;1.80;;;21.60;83.00;;;;;;5034425;28;20041;-58
2022/07/27 13:05:55;;;;;;;6.63;1.70;;;21.60;83.10;;;;;;5033330;28;20057;-51
2022/07/27 13:08:22;;;;;;;3.63;1.20;;;21.40;83.30;;;;;;5034508;28;20400;-51
2022/07/27 13:10:51;;;;;;;4.15;1.58;;;21.40;84.30;;;;;;5034134;28;20044;-50
2022/07/27 13:13:23;;;;;;;4.80;1.67;;;21.40;84.00;;;;;;5033818;28;20088;-52
2022/07/27 13:15:50;;;;;;;7.78;1.98;;;21.50;84.30;;;;;;5034142;28;20115;-48
2022/07/27 13:18:17;;;;;;;8.00;2.13;;;21.50;84.50;;;;;;5034265;28;20042;-46
2022/07/27 13:20:49;;;;;;;6.10;1.80;;;21.50;84.30;;;;;;5035554;28;20048;-55
2022/07/27 13:23:16;;;;;;;6.88;1.60;;;21.40;84.80;;;;;;5033778;28;20041;-51
2022/07/27 13:25:42;;;;;;;4.35;1.40;;;21.40;85.40;;;;;;5034060;28;20491;-51
2022/07/27 13:28:09;;;;;;;5.55;1.70;;;21.30;85.60;;;;;;5034240;28;20084;-53
2022/07/27 13:30:36;;;;;;;4.25;1.60;;;21.30;85.50;;;;;;5034083;28;20433;-51
2022/07/27 13:33:03;;;;;;;4.28;1.67;;;21.30;85.70;;;;;;5033927;28;20103;-58
2022/07/27 13:35:30;;;;;;;4.57;1.50;;;21.30;85.90;;;;;;5033930;28;20052;-49
2022/07/27 13:37:57;;;;;;;8.73;1.80;;;21.20;85.70;;;;;;5033735;28;20450;-47
2022/07/27 13:40:24;;;;;;;5.32;1.60;;;21.20;85.60;;;;;;5016286;28;20045;-50
2022/07/27 13:42:50;;;;;;;5.60;1.90;;;21.20;85.80;;;;;;5033874;28;20061;-52
2022/07/27 13:45:17;;;;;;;4.32;1.70;;;21.20;85.90;;;;;;5033690;28;20037;-53
2022/07/27 13:47:44;;;;;;;5.30;1.67;;;21.30;85.40;;;;;;5033633;28;20038;-50
2022/07/27 13:50:11;;;;;;;4.82;1.77;;;21.30;85.30;;;;;;5033786;28;20068;-53
2022/07/27 13:52:44;;;;;;;3.40;1.40;;;21.30;85.40;;;;;;5030553;28;20046;-55
2022/07/27 13:55:12;;;;;;;7.57;1.83;;;21.50;84.90;;;;;;5029453;28;20046;-57
2022/07/27 13:57:38;;;;;;;4.95;1.63;;;21.50;84.50;;;;;;5031928;28;20076;-49
2022/07/27 14:00:05;;;;;;;7.32;1.70;;;21.60;84.30;;;;;;5033460;28;20504;-48
2022/07/27 14:02:32;;;;;;;4.35;1.30;;;21.70;84.10;;;;;;5033370;28;20404;-50
2022/07/27 14:04:59;;;;;;;6.25;1.60;;;21.60;84.20;;;;;;5032976;28;20136;-56
2022/07/27 14:07:28;;;;;;;8.50;1.52;;;21.60;84.30;;;;;;5033260;28;20042;-47
2022/07/27 14:12:40;;;;;;;;;;;21.60;84.70;;;;;;5032205;28;20060;-49
2022/07/27 14:15:06;;;;;;;6.05;1.38;;;21.50;84.40;;;;;;5033055;28;20019;-46
2022/07/27 14:17:33;;;;;;;7.03;1.33;;;21.50;84.70;;;;;;5032908;28;20492;-47
2022/07/27 14:20:00;;;;;;;4.13;1.65;;;21.60;84.50;;;;;;5033083;28;20091;-46
2022/07/27 14:22:27;;;;;;;6.65;1.23;;;21.70;84.30;;;;;;5036631;28;20049;-55
2022/07/27 14:24:53;;;;;;;5.00;1.30;;;21.80;84.10;;;;;;5031682;28;20400;-53
2022/07/27 14:27:20;;;;;;;5.38;1.23;;;21.90;83.60;;;;;;5030099;28;20042;-53
2022/07/27 14:29:47;;;;;;;3.47;1.00;;;22.00;83.50;;;;;;5031762;28;20095;-51
2022/07/27 14:32:14;;;;;;;4.13;1.27;;;22.00;83.40;;;;;;5032840;28;20048;-56
2022/07/27 14:34:43;;;;;;;3.38;1.30;;;22.10;82.80;;;;;;5031369;28;20042;-54
2022/07/27 14:37:10;;;;;;;4.85;1.05;;;22.20;83.00;;;;;;5032808;28;20372;-45
2022/07/27 14:39:36;;;;;;;2.13;1.00;;;22.40;82.40;;;;;;5031569;28;20472;-54
2022/07/27 14:42:05;;;;;;;5.15;1.40;;;22.50;82.10;;;;;;5032788;28;20069;-51
2022/07/27 14:44:33;;;;;;;4.00;1.20;;;22.60;81.10;;;;;;5032513;28;20084;-54
2022/07/27 14:47:00;;;;;;;3.72;1.10;;;22.80;81.20;;;;;;5032725;28;20042;-53
2022/07/27 14:49:27;;;;;;;6.00;1.27;;;23.00;80.60;;;;;;5031550;28;20050;-53
2022/07/27 14:51:54;;;;;;;5.93;1.60;;;23.10;80.10;;;;;;5038648;28;20570;-53
2022/07/27 14:54:21;;;;;;;5.35;1.58;;;23.20;79.60;;;;;;5032600;28;20443;-56
2022/07/27 14:56:48;;;;;;;5.18;1.33;;;23.20;79.60;;;;;;5032609;28;20530;-47
2022/07/27 14:59:14;;;;;;;6.70;1.80;;;23.30;78.90;;;;;;5032559;28;20497;-51
2022/07/27 15:01:42;;;;;;;5.05;1.17;;;23.30;78.60;;;;;;5032679;28;20041;-53
2022/07/27 15:04:09;;;;;;;4.22;1.20;;;23.40;78.10;;;;;;5032612;28;20543;-50
2022/07/27 15:06:36;;;;;;;4.75;1.35;;;23.50;77.70;;;;;;5014930;28;20507;-47
2022/07/27 15:09:05;;;;;;;3.95;1.70;;;23.60;77.00;;;;;;5031712;28;20037;-50
2022/07/27 15:11:31;;;;;;;8.52;1.80;;;23.80;76.60;;;;;;5035980;28;20068;-55
2022/07/27 15:13:58;;;;;;;6.20;1.60;;;23.80;76.20;;;;;;5036404;28;20049;-50
2022/07/27 15:16:25;;;;;;;3.67;1.55;;;23.70;75.70;;;;;;5036501;28;20045;-56
2022/07/27 15:18:52;;;;;;;8.02;1.90;;;23.50;75.70;;;;;;5036638;28;20077;-55
2022/07/27 15:21:18;;;;;;;6.20;1.50;;;23.50;76.10;;;;;;5038246;28;20419;-58
2022/07/27 15:23:45;;;;;;;5.10;1.40;;;23.50;76.00;;;;;;5033916;28;20050;-55
2022/07/27 15:26:12;;;;;;;4.80;1.80;;;23.60;75.50;;;;;;5034072;28;20043;-51
2022/07/27 15:28:39;;;;;;;6.05;1.40;;;23.70;75.30;;;;;;5034876;28;20063;-51
2022/07/27 15:31:05;;;;;;;3.85;1.38;;;23.70;75.10;;;;;;5034865;28;20056;-59
2022/07/27 15:33:32;;;;;;;5.85;1.60;;;23.70;74.80;;;;;;5036606;28;20049;-54
2022/07/27 15:35:59;;;;;;;3.97;1.35;;;23.70;75.40;;;;;;5036560;28;20045;-50
2022/07/27 15:38:26;;;;;;;5.38;1.60;;;23.70;74.40;;;;;;5035341;28;20045;-56
2022/07/27 15:40:53;;;;;;;3.17;1.20;;;23.70;74.80;;;;;;5036319;28;20041;-55
2022/07/27 15:43:20;;;;;;;4.20;1.10;;;23.70;75.10;;;;;;5039125;28;20128;-54
2022/07/27 15:45:47;;;;;;;5.38;1.30;;;23.70;74.50;;;;;;5036482;28;20075;-50
2022/07/27 15:48:19;;;;;;;5.05;1.30;;;23.80;75.00;;;;;;5038950;28;20392;-53
2022/07/27 15:50:47;;;;;;;5.93;1.65;;;23.90;74.50;;;;;;5036208;28;20486;-53
2022/07/27 15:53:14;;;;;;;3.85;0.93;;;23.90;74.00;;;;;;5035181;28;20068;-54
2022/07/27 15:55:40;;;;;;;3.85;1.20;;;23.90;74.60;;;;;;5037193;28;20045;-57
2022/07/27 15:58:07;;;;;;;7.53;1.00;;;24.00;74.30;;;;;;5039574;28;20065;-50
2022/07/27 16:00:34;;;;;;;3.95;1.10;;;24.00;73.70;;;;;;5034767;28;20049;-55
2022/07/27 16:03:06;;;;;;;6.13;1.23;;;23.90;73.30;;;;;;5037920;28;20404;-51
2022/07/27 16:05:33;;;;;;;4.47;1.15;;;23.70;73.20;;;;;;5036085;28;20045;-48
2022/07/27 16:07:59;;;;;;;5.80;1.60;;;23.70;74.40;;;;;;5037384;28;20049;-51
2022/07/27 16:10:28;;;;;;;2.85;1.20;;;23.60;73.70;;;;;;5039337;28;20103;-54
2022/07/27 16:12:55;;;;;;;6.97;1.30;;;23.50;74.10;;;;;;5036232;28;20139;-51
2022/07/27 16:16:20;;;;;;;3.95;1.23;;;23.50;74.20;;;;;;5039113;28;20049;-47
2022/07/27 16:18:09;;;;;;;3.35;1.38;;;23.50;74.00;;;;;;5037150;28;20060;-53
2022/07/27 16:20:35;;;;;;;5.75;1.10;;;23.40;73.90;;;;;;5036059;28;20045;-49
2022/07/27 16:23:02;;;;;;;3.10;0.90;;;23.30;73.60;;;;;;5035694;28;20484;-52
2022/07/27 16:25:47;;;;;;;3.25;1.30;;;23.20;74.30;;;;;;5035704;28;20095;-51
2022/07/27 16:28:29;;;;;;;3.75;1.30;;;23.30;74.00;;;;;;5036103;28;20131;-46
2022/07/27 16:30:56;;;;;;;4.07;1.50;;;23.30;74.30;;;;;;5035507;28;20045;-50
2022/07/27 16:33:23;;;;;;;3.17;1.10;;;23.30;73.70;;;;;;5034700;28;21726;-56
2022/07/27 16:35:50;;;;;;;4.13;1.05;;;23.30;73.50;;;;;;5035677;28;20045;-53
2022/07/27 16:38:17;;;;;;;5.68;1.20;;;23.20;73.30;;;;;;5037211;28;20045;-50
2022/07/27 16:40:44;;;;;;;8.95;1.52;;;23.10;73.40;;;;;;5035359;28;20439;-53
2022/07/27 16:43:10;;;;;;;2.20;1.05;;;23.10;74.10;;;;;;5034624;28;20052;-52
2022/07/27 16:45:37;;;;;;;2.58;0.90;;;23.10;73.40;;;;;;5034912;28;20064;-48
2022/07/27 16:48:04;;;;;;;4.25;0.90;;;23.00;73.70;;;;;;5035112;28;20049;-56
2022/07/27 16:50:31;;;;;;;3.38;1.20;;;23.10;73.60;;;;;;5034947;28;20451;-52
2022/07/27 16:52:57;;;;;;;4.65;1.70;;;23.00;73.70;;;;;;5035247;28;20037;-51
2022/07/27 16:55:24;;;;;;;3.13;1.20;;;22.90;73.00;;;;;;5037459;28;20447;-53
2022/07/27 16:57:53;;;;;;;4.05;1.52;;;22.90;73.20;;;;;;5034994;28;20117;-53
2022/07/27 17:00:20;;;;;;;9.50;1.38;;;22.80;73.30;;;;;;5037418;28;20447;-48
2022/07/27 17:02:46;;;;;;;4.03;1.25;;;22.80;73.00;;;;;;5035078;28;20463;-53
2022/07/27 17:05:13;;;;;;;5.18;1.25;;;22.80;72.90;;;;;;5038640;28;20479;-55
2022/07/27 17:07:41;;;;;;;3.85;1.65;;;22.80;72.80;;;;;;5035020;28;20037;-53
2022/07/27 17:10:08;;;;;;;4.22;1.50;;;22.80;72.50;;;;;;5034873;28;20041;-51
2022/07/27 17:12:35;;;;;;;7.78;3.78;;;22.70;72.10;;;;;;5034398;28;20065;-57
2022/07/27 17:15:04;;;;;;;5.72;3.25;;;22.60;71.90;;;;;;5034674;28;20045;-55
2022/07/27 17:17:31;;;;;;;7.28;1.80;;;22.70;71.90;;;;;;5034591;28;20115;-55
2022/07/27 17:19:58;;;;;;;4.50;1.08;;;22.60;71.50;;;;;;5033778;28;20408;-53
2022/07/27 17:22:25;;;;;;;4.70;1.23;;;22.60;71.70;;;;;;5034561;28;20053;-48
2022/07/27 17:24:51;;;;;;;3.55;1.10;;;22.50;71.50;;;;;;5034337;28;20046;-48
2022/07/27 17:27:18;;;;;;;3.38;1.10;;;22.50;71.70;;;;;;5027056;28;20049;-51
2022/07/27 17:29:45;;;;;;;2.60;1.00;;;22.40;71.40;;;;;;5033441;28;20037;-51
2022/07/27 17:32:12;;;;;;;2.78;1.23;;;22.40;71.70;;;;;;5033500;28;20049;-51
2022/07/27 17:34:40;;;;;;;4.80;1.77;;;22.50;71.10;;;;;;5038349;28;20068;-53
2022/07/27 17:37:07;;;;;;;5.93;1.58;;;22.40;71.30;;;;;;5033032;28;20111;-53
2022/07/27 17:39:34;;;;;;;4.90;1.23;;;22.40;71.10;;;;;;5033542;28;20045;-52
2022/07/27 17:42:01;;;;;;;4.18;1.52;;;22.40;71.50;;;;;;5034294;28;20069;-47
2022/07/27 17:44:27;;;;;;;4.10;1.00;;;22.30;71.20;;;;;;5032932;28;20045;-48
2022/07/27 17:46:54;;;;;;;5.88;1.20;;;22.20;71.40;;;;;;5038074;28;20041;-54
2022/07/27 17:49:21;;;;;;;3.13;1.10;;;22.10;72.10;;;;;;5034965;28;20072;-47
2022/07/27 17:51:48;;;;;;;4.40;1.13;;;22.00;72.70;;;;;;5034226;28;20043;-53
2022/07/27 17:54:15;;;;;;;6.68;1.20;;;22.00;72.70;;;;;;5035297;28;20045;-51
2022/07/27 17:56:41;;;;;;;3.50;1.30;;;22.00;72.80;;;;;;5033993;28;20049;-51
2022/07/27 17:59:08;;;;;;;7.10;1.15;;;22.00;73.20;;;;;;5033359;28;20115;-47
2022/07/27 18:01:55;;;;;;;4.72;1.17;;;21.90;73.40;;;;;;5034087;28;20037;-51
2022/07/27 18:04:22;;;;;;;4.78;1.25;;;21.90;74.40;;;;;;5039588;28;20112;-49
2022/07/27 18:06:52;;;;;;;4.88;1.05;;;21.90;73.60;;;;;;5033874;28;20056;-46
2022/07/27 18:09:18;;;;;;;2.63;0.90;;;21.80;73.70;;;;;;5036734;28;20103;-55
2022/07/27 18:11:45;;;;;;;3.58;1.15;;;21.80;73.90;;;;;;5033707;28;20119;-54
2022/07/27 18:14:12;;;;;;;7.38;1.20;;;21.70;74.30;;;;;;5034015;28;20053;-56
2022/07/27 18:16:39;;;;;;;3.38;1.05;;;21.70;74.30;;;;;;5033989;28;20046;-53
2022/07/27 18:19:06;;;;;;;5.47;1.70;;;21.70;74.30;;;;;;5033048;28;20049;-49
2022/07/27 18:21:33;;;;;;;3.83;1.33;;;21.70;74.30;;;;;;5025919;28;20037;-48
2022/07/27 18:24:00;;;;;;;5.72;1.20;;;21.60;74.20;;;;;;5027399;28;20069;-47
2022/07/27 18:26:27;;;;;;;3.50;1.10;;;21.60;74.40;;;;;;5035898;28;20506;-52
2022/07/27 18:28:54;;;;;;;6.55;1.30;;;21.60;74.40;;;;;;5033486;28;20042;-48
2022/07/27 18:31:21;;;;;;;5.32;1.08;;;21.60;74.00;;;;;;5033426;28;20507;-53
2022/07/27 18:33:50;;;;;;;5.93;1.00;;;21.50;73.90;;;;;;5033463;28;20037;-51
2022/07/27 18:36:18;;;;;;;4.78;1.17;;;21.50;74.20;;;;;;5033070;28;20048;-57
2022/07/27 18:38:45;;;;;;;4.15;1.58;;;21.50;73.70;;;;;;5033338;28;20484;-52
2022/07/27 18:41:11;;;;;;;4.65;1.40;;;21.50;74.00;;;;;;5034822;28;20049;-55
2022/07/27 18:43:38;;;;;;;6.35;1.50;;;21.50;74.00;;;;;;5033559;28;20480;-54
2022/07/27 18:46:05;;;;;;;2.65;1.10;;;21.50;73.60;;;;;;5033221;28;20046;-49
2022/07/27 18:48:32;;;;;;;4.20;1.23;;;21.50;73.40;;;;;;5035844;28;20091;-54
2022/07/27 18:50:59;;;;;;;4.32;0.95;;;21.50;72.80;;;;;;5033080;28;20091;-52
2022/07/27 18:53:25;;;;;;;3.28;1.08;;;21.40;71.20;;;;;;5037885;28;20052;-53
2022/07/27 18:55:52;;;;;;;2.88;0.93;;;21.40;71.60;;;;;;5036527;28;20041;-51
2022/07/27 18:58:22;;;;;;;6.47;1.17;;;21.30;71.50;;;;;;5034616;28;20041;-56
2022/07/27 19:00:49;;;;;;;5.88;1.20;;;21.30;71.80;;;;;;5032870;28;20049;-50
2022/07/27 19:03:17;;;;;;;3.38;1.15;;;21.20;72.00;;;;;;5031224;28;20457;-48
2022/07/27 19:05:47;;;;;;;3.50;1.23;;;21.20;72.20;;;;;;5033747;28;20049;-52
2022/07/27 19:08:16;;;;;;;2.80;1.20;;;21.20;72.60;;;;;;5033280;28;20045;-54
2022/07/27 19:10:43;;;;;;;3.25;1.02;;;21.10;72.20;;;;;;5032887;28;20038;-52
2022/07/27 19:13:09;;;;;;;4.47;1.20;;;21.00;72.50;;;;;;5032934;28;20048;-49
2022/07/27 19:15:36;;;;;;;3.30;1.20;;;21.00;72.50;;;;;;5032509;28;20037;-47
2022/07/27 19:18:03;;;;;;;2.60;1.10;;;20.90;72.60;;;;;;5033086;28;20041;-52
2022/07/27 19:20:30;;;;;;;4.50;1.10;;;20.90;72.60;;;;;;5038054;28;20080;-47
2022/07/27 19:22:58;;;;;;;2.70;1.02;;;20.90;72.30;;;;;;5032750;28;20037;-53
2022/07/27 19:25:25;;;;;;;3.00;1.20;;;20.80;72.40;;;;;;5032777;28;20542;-55
2022/07/27 19:27:52;;;;;;;4.47;1.25;;;20.70;72.50;;;;;;5032824;28;20411;-57
2022/07/27 19:30:18;;;;;;;6.38;1.38;;;20.70;72.60;;;;;;5038674;28;20038;-55
2022/07/27 19:32:45;;;;;;;3.97;1.30;;;20.70;72.70;;;;;;5032804;28;20041;-56
2022/07/27 19:35:12;;;;;;;2.72;1.20;;;20.60;72.90;;;;;;5035622;28;20060;-58
2022/07/27 19:37:39;;;;;;;3.97;1.10;;;20.60;73.10;;;;;;5032812;28;20045;-48
2022/07/27 19:40:05;;;;;;;4.57;1.20;;;20.50;73.30;;;;;;5032782;28;20054;-55
2022/07/27 19:42:52;;;;;;;5.25;1.55;;;20.50;73.40;;;;;;5031526;28;20045;-49